Volgo-balt 229 — UHZF — position and weather

sailwx.info

Track history (hours):
 
Tides and Currents Weather Stations Pressure Air Temp Water Temp Dewpoint Dewpoint Depression Visibility Wind Speed Wind Dir Waves Ship Positions

Volgo-balt 229

Last reported at 2014-Oct-15 22:07 UTC. Time now 2014-Oct-24 14:43 UTC.
Position N 59°57' E 030°23'.
Warning: this ship's position is 8 days out of date.

Length 113 m; draft 2.6 m.

Type: Ship. MMSI: 273336300.

Date/timePositionNaut miles runAvg speedWind from/ knotsBaromVisibWave heightAir tempDewpointWater temp
2014-Oct-15 22:07N 59°57' E 030°23'3 5.7
2014-Oct-15 21:33N 59°56' E 030°17'0 0.3
2014-Oct-15 20:32N 59°56' E 030°17'0 0.0
2014-Oct-15 18:29N 59°56' E 030°17'0 0.0
2014-Oct-15 17:12N 59°56' E 030°17'0 0.0
2014-Oct-15 16:24N 59°56' E 030°17'0 0.0
2014-Oct-15 15:33N 59°56' E 030°17'0 0.0
2014-Oct-15 14:33N 59°56' E 030°17'0 0.0
2014-Oct-15 13:33N 59°56' E 030°17'0 0.0
2014-Oct-15 12:33N 59°56' E 030°17'0 0.0
2014-Oct-15 11:33N 59°56' E 030°17'1 0.5
2014-Oct-15 10:33N 59°56' E 030°16'2 1.7
2014-Oct-15 09:29N 59°54' E 030°14'0 0.0
2014-Oct-15 08:28N 59°54' E 030°14'107 5.0
2014-Oct-14 11:14N 59°59' E 026°40'7 8.3
2014-Oct-14 10:26N 59°58' E 026°27'  
2014-Oct-11 19:30N 55°19' E 014°33'92 7.7
2014-Oct-11 07:33N 54°31' E 012°17'9 8.6
2014-Oct-11 06:32N 54°23' E 012°09'8 8.1
2014-Oct-11 05:33N 54°16' E 012°05'8 7.6
2014-Oct-11 04:33N 54°08' E 012°06'1 0.9
2014-Oct-11 03:30N 54°07' E 012°05'0 0.0
2014-Oct-11 02:27N 54°07' E 012°05'0 0.0
2014-Oct-11 01:27N 54°07' E 012°05'0 0.0
2014-Oct-11 00:33N 54°07' E 012°05'0 0.0
2014-Oct-10 23:33N 54°07' E 012°05'0 0.0
2014-Oct-10 22:27N 54°07' E 012°05'0 0.0
2014-Oct-10 21:27N 54°07' E 012°05'0 0.0
2014-Oct-10 20:30N 54°07' E 012°05'0 0.0
2014-Oct-10 19:30N 54°07' E 012°05'0 0.0
2014-Oct-10 18:33N 54°07' E 012°05'0 0.0
2014-Oct-10 17:30N 54°07' E 012°05'0 0.0
2014-Oct-10 16:33N 54°07' E 012°05'0 0.0
2014-Oct-10 15:27N 54°07' E 012°05'0 0.0
2014-Oct-10 14:12N 54°07' E 012°05'0 0.0
2014-Oct-10 13:33N 54°07' E 012°05'0 0.0
2014-Oct-10 12:33N 54°07' E 012°05'0 0.0
2014-Oct-10 11:33N 54°07' E 012°05'0 0.0
2014-Oct-10 10:33N 54°07' E 012°05'0 0.0
2014-Oct-10 09:33N 54°07' E 012°05'0 0.0
2014-Oct-10 08:24N 54°07' E 012°05'0 0.0
2014-Oct-10 07:33N 54°07' E 012°05'0 0.0
2014-Oct-10 06:24N 54°07' E 012°05'0 0.0
2014-Oct-10 05:27N 54°07' E 012°05'0 0.0
2014-Oct-10 04:33N 54°07' E 012°05'2 1.7
2014-Oct-10 03:33N 54°09' E 012°06'5 4.7
2014-Oct-10 02:30N 54°13' E 012°01'0 0.0
2014-Oct-10 01:24N 54°13' E 012°01'0 0.0
2014-Oct-10 00:30N 54°13' E 012°01'0 0.0
2014-Oct-09 23:33N 54°13' E 012°01'1 0.7
2014-Oct-09 22:33N 54°14' E 012°01'7 7.0
2014-Oct-09 21:33N 54°21' E 011°60'6 6.2
2014-Oct-09 20:33N 54°26' E 012°03'96 6.8
2014-Oct-09 06:33N 54°40' E 014°47'115 7.5
2014-Oct-08 15:17N 54°57' E 018°04'6 7.7
2014-Oct-08 14:33N 54°58' E 018°14'8 7.9
2014-Oct-08 13:33N 54°58' E 018°28'8 7.7
2014-Oct-08 12:33N 54°57' E 018°41'8 7.5
2014-Oct-08 11:33N 54°57' E 018°54'7 7.3
2014-Oct-08 10:33N 54°57' E 019°07'7 6.8
2014-Oct-08 09:33N 54°59' E 019°18'  
Track history (hours):
 
Tides and Currents Weather Stations Pressure Air Temp Water Temp Dewpoint Dewpoint Depression Visibility Wind Speed Wind Dir Waves Ship Positions

Volgo-balt 229

Last reported at 2014-Oct-15 22:07 UTC. Time now 2014-Oct-24 14:43 UTC.
Position N 59°57' E 030°23'.
Warning: this ship's position is 8 days out of date.

Length 113 m; draft 2.6 m.

Type: Ship. MMSI: 273336300.

Date/timePositionNaut miles runAvg speedWind from/ knotsBaromVisibWave heightAir tempDewpointWater temp
2014-Oct-15 22:07N 59°57' E 030°23'3 5.7
2014-Oct-15 21:33N 59°56' E 030°17'0 0.3
2014-Oct-15 20:32N 59°56' E 030°17'0 0.0
2014-Oct-15 18:29N 59°56' E 030°17'0 0.0
2014-Oct-15 17:12N 59°56' E 030°17'0 0.0
2014-Oct-15 16:24N 59°56' E 030°17'0 0.0
2014-Oct-15 15:33N 59°56' E 030°17'0 0.0
2014-Oct-15 14:33N 59°56' E 030°17'0 0.0
2014-Oct-15 13:33N 59°56' E 030°17'0 0.0
2014-Oct-15 12:33N 59°56' E 030°17'0 0.0
2014-Oct-15 11:33N 59°56' E 030°17'1 0.5
2014-Oct-15 10:33N 59°56' E 030°16'2 1.7
2014-Oct-15 09:29N 59°54' E 030°14'0 0.0
2014-Oct-15 08:28N 59°54' E 030°14'107 5.0
2014-Oct-14 11:14N 59°59' E 026°40'7 8.3
2014-Oct-14 10:26N 59°58' E 026°27'  
2014-Oct-11 19:30N 55°19' E 014°33'92 7.7
2014-Oct-11 07:33N 54°31' E 012°17'9 8.6
2014-Oct-11 06:32N 54°23' E 012°09'8 8.1
2014-Oct-11 05:33N 54°16' E 012°05'8 7.6
2014-Oct-11 04:33N 54°08' E 012°06'1 0.9
2014-Oct-11 03:30N 54°07' E 012°05'0 0.0
2014-Oct-11 02:27N 54°07' E 012°05'0 0.0
2014-Oct-11 01:27N 54°07' E 012°05'0 0.0
2014-Oct-11 00:33N 54°07' E 012°05'0 0.0
2014-Oct-10 23:33N 54°07' E 012°05'0 0.0
2014-Oct-10 22:27N 54°07' E 012°05'0 0.0
2014-Oct-10 21:27N 54°07' E 012°05'0 0.0
2014-Oct-10 20:30N 54°07' E 012°05'0 0.0
2014-Oct-10 19:30N 54°07' E 012°05'0 0.0
2014-Oct-10 18:33N 54°07' E 012°05'0 0.0
2014-Oct-10 17:30N 54°07' E 012°05'0 0.0
2014-Oct-10 16:33N 54°07' E 012°05'0 0.0
2014-Oct-10 15:27N 54°07' E 012°05'0 0.0
2014-Oct-10 14:12N 54°07' E 012°05'0 0.0
2014-Oct-10 13:33N 54°07' E 012°05'0 0.0
2014-Oct-10 12:33N 54°07' E 012°05'0 0.0
2014-Oct-10 11:33N 54°07' E 012°05'0 0.0
2014-Oct-10 10:33N 54°07' E 012°05'0 0.0
2014-Oct-10 09:33N 54°07' E 012°05'0 0.0
2014-Oct-10 08:24N 54°07' E 012°05'0 0.0
2014-Oct-10 07:33N 54°07' E 012°05'0 0.0
2014-Oct-10 06:24N 54°07' E 012°05'0 0.0
2014-Oct-10 05:27N 54°07' E 012°05'0 0.0
2014-Oct-10 04:33N 54°07' E 012°05'2 1.7
2014-Oct-10 03:33N 54°09' E 012°06'5 4.7
2014-Oct-10 02:30N 54°13' E 012°01'0 0.0
2014-Oct-10 01:24N 54°13' E 012°01'0 0.0
2014-Oct-10 00:30N 54°13' E 012°01'0 0.0
2014-Oct-09 23:33N 54°13' E 012°01'1 0.7
2014-Oct-09 22:33N 54°14' E 012°01'7 7.0
2014-Oct-09 21:33N 54°21' E 011°60'6 6.2
2014-Oct-09 20:33N 54°26' E 012°03'96 6.8
2014-Oct-09 06:33N 54°40' E 014°47'115 7.5
2014-Oct-08 15:17N 54°57' E 018°04'6 7.7
2014-Oct-08 14:33N 54°58' E 018°14'8 7.9
2014-Oct-08 13:33N 54°58' E 018°28'8 7.7
2014-Oct-08 12:33N 54°57' E 018°41'8 7.5
2014-Oct-08 11:33N 54°57' E 018°54'7 7.3
2014-Oct-08 10:33N 54°57' E 019°07'7 6.8
2014-Oct-08 09:33N 54°59' E 019°18'  

Dump ship's entire track history